sensor_id;sensor_type;location;lat;lon;timestamp;temperature;humidity
11748;DHT22;5931;48.832;9.072;2023-11-21T00:00:21;7.20;99.90
11748;DHT22;5931;48.832;9.072;2023-11-21T00:02:47;7.30;99.90
11748;DHT22;5931;48.832;9.072;2023-11-21T00:05:14;7.30;99.90
11748;DHT22;5931;48.832;9.072;2023-11-21T00:07:40;7.30;99.90
11748;DHT22;5931;48.832;9.072;2023-11-21T00:10:07;7.40;99.90
11748;DHT22;5931;48.832;9.072;2023-11-21T00:12:34;7.40;99.90
11748;DHT22;5931;48.832;9.072;2023-11-21T00:15:00;7.40;99.90
11748;DHT22;5931;48.832;9.072;2023-11-21T00:17:27;7.40;99.90
11748;DHT22;5931;48.832;9.072;2023-11-21T00:19:53;7.40;99.90
11748;DHT22;5931;48.832;9.072;2023-11-21T00:22:20;7.40;99.90
11748;DHT22;5931;48.832;9.072;2023-11-21T00:24:46;7.50;99.90
11748;DHT22;5931;48.832;9.072;2023-11-21T00:27:12;7.60;99.90
11748;DHT22;5931;48.832;9.072;2023-11-21T00:29:38;7.60;99.90
11748;DHT22;5931;48.832;9.072;2023-11-21T00:32:05;7.50;99.90
11748;DHT22;5931;48.832;9.072;2023-11-21T00:34:32;7.60;99.90
11748;DHT22;5931;48.832;9.072;2023-11-21T00:36:58;7.70;99.90
11748;DHT22;5931;48.832;9.072;2023-11-21T00:39:24;7.70;99.90
11748;DHT22;5931;48.832;9.072;2023-11-21T00:41:50;7.70;99.90
11748;DHT22;5931;48.832;9.072;2023-11-21T00:44:18;7.70;99.90
11748;DHT22;5931;48.832;9.072;2023-11-21T00:46:43;7.70;99.90
11748;DHT22;5931;48.832;9.072;2023-11-21T00:49:09;7.70;99.90
11748;DHT22;5931;48.832;9.072;2023-11-21T00:51:35;7.60;99.90
11748;DHT22;5931;48.832;9.072;2023-11-21T00:54:01;7.60;99.90
11748;DHT22;5931;48.832;9.072;2023-11-21T00:56:27;7.60;99.90
11748;DHT22;5931;48.832;9.072;2023-11-21T00:58:53;7.60;99.90
11748;DHT22;5931;48.832;9.072;2023-11-21T01:01:20;7.60;99.90
11748;DHT22;5931;48.832;9.072;2023-11-21T01:03:47;7.60;99.90
11748;DHT22;5931;48.832;9.072;2023-11-21T01:06:13;7.60;99.90
11748;DHT22;5931;48.832;9.072;2023-11-21T01:08:39;7.60;99.90
11748;DHT22;5931;48.832;9.072;2023-11-21T01:11:05;7.60;99.90
11748;DHT22;5931;48.832;9.072;2023-11-21T01:13:33;7.60;99.90
11748;DHT22;5931;48.832;9.072;2023-11-21T01:15:59;7.70;99.90
11748;DHT22;5931;48.832;9.072;2023-11-21T01:18:25;7.60;99.90
11748;DHT22;5931;48.832;9.072;2023-11-21T01:20:55;7.60;99.90
11748;DHT22;5931;48.832;9.072;2023-11-21T01:23:20;7.60;99.90
11748;DHT22;5931;48.832;9.072;2023-11-21T01:25:46;7.60;99.90
11748;DHT22;5931;48.832;9.072;2023-11-21T01:28:12;7.50;99.90
11748;DHT22;5931;48.832;9.072;2023-11-21T01:30:38;7.50;99.90
11748;DHT22;5931;48.832;9.072;2023-11-21T01:33:03;7.50;99.90
11748;DHT22;5931;48.832;9.072;2023-11-21T01:35:30;7.60;99.90
11748;DHT22;5931;48.832;9.072;2023-11-21T01:37:56;7.60;99.90
11748;DHT22;5931;48.832;9.072;2023-11-21T01:40:23;7.60;99.90
11748;DHT22;5931;48.832;9.072;2023-11-21T01:42:50;7.60;99.90
11748;DHT22;5931;48.832;9.072;2023-11-21T01:45:16;7.60;99.90
11748;DHT22;5931;48.832;9.072;2023-11-21T01:47:42;7.60;99.90
11748;DHT22;5931;48.832;9.072;2023-11-21T01:50:14;7.70;99.90
11748;DHT22;5931;48.832;9.072;2023-11-21T01:52:42;7.70;99.90
11748;DHT22;5931;48.832;9.072;2023-11-21T01:55:08;7.60;99.90
11748;DHT22;5931;48.832;9.072;2023-11-21T01:57:35;7.60;99.90
11748;DHT22;5931;48.832;9.072;2023-11-21T02:00:03;7.60;99.90
11748;DHT22;5931;48.832;9.072;2023-11-21T02:02:47;7.70;99.90
11748;DHT22;5931;48.832;9.072;2023-11-21T02:05:15;7.70;99.90
11748;DHT22;5931;48.832;9.072;2023-11-21T02:07:42;7.70;99.90
11748;DHT22;5931;48.832;9.072;2023-11-21T02:10:08;7.80;99.90
11748;DHT22;5931;48.832;9.072;2023-11-21T02:12:36;7.80;99.90
11748;DHT22;5931;48.832;9.072;2023-11-21T02:15:05;7.80;99.90
11748;DHT22;5931;48.832;9.072;2023-11-21T02:17:36;7.80;99.90
11748;DHT22;5931;48.832;9.072;2023-11-21T02:20:02;7.80;99.90
11748;DHT22;5931;48.832;9.072;2023-11-21T02:22:31;7.80;99.90
11748;DHT22;5931;48.832;9.072;2023-11-21T02:24:58;7.80;99.90
11748;DHT22;5931;48.832;9.072;2023-11-21T02:27:24;7.90;99.90
11748;DHT22;5931;48.832;9.072;2023-11-21T02:29:50;7.80;99.90
11748;DHT22;5931;48.832;9.072;2023-11-21T02:32:16;7.80;99.90
11748;DHT22;5931;48.832;9.072;2023-11-21T02:34:48;7.80;99.90
11748;DHT22;5931;48.832;9.072;2023-11-21T02:37:14;7.70;99.90
11748;DHT22;5931;48.832;9.072;2023-11-21T02:39:40;7.60;99.90
11748;DHT22;5931;48.832;9.072;2023-11-21T02:42:05;7.60;99.90
11748;DHT22;5931;48.832;9.072;2023-11-21T02:48:31;7.60;99.90
11748;DHT22;5931;48.832;9.072;2023-11-21T02:50:57;7.50;99.90
11748;DHT22;5931;48.832;9.072;2023-11-21T02:53:22;7.60;99.90
11748;DHT22;5931;48.832;9.072;2023-11-21T02:55:50;7.60;99.90
11748;DHT22;5931;48.832;9.072;2023-11-21T02:58:15;7.60;99.90
11748;DHT22;5931;48.832;9.072;2023-11-21T03:00:42;7.60;99.90
11748;DHT22;5931;48.832;9.072;2023-11-21T03:03:08;7.50;99.90
11748;DHT22;5931;48.832;9.072;2023-11-21T03:05:34;7.40;99.90
11748;DHT22;5931;48.832;9.072;2023-11-21T03:08:01;7.40;99.90
11748;DHT22;5931;48.832;9.072;2023-11-21T03:10:26;7.50;99.90
11748;DHT22;5931;48.832;9.072;2023-11-21T03:12:52;7.50;99.90
11748;DHT22;5931;48.832;9.072;2023-11-21T03:15:18;7.50;99.90
11748;DHT22;5931;48.832;9.072;2023-11-21T03:17:44;7.50;99.90
11748;DHT22;5931;48.832;9.072;2023-11-21T03:20:10;7.50;99.90
11748;DHT22;5931;48.832;9.072;2023-11-21T03:22:37;7.60;99.90
11748;DHT22;5931;48.832;9.072;2023-11-21T03:25:04;7.60;99.90
11748;DHT22;5931;48.832;9.072;2023-11-21T03:27:30;7.50;99.90
11748;DHT22;5931;48.832;9.072;2023-11-21T03:29:56;7.60;99.90
11748;DHT22;5931;48.832;9.072;2023-11-21T03:32:22;7.60;99.90
11748;DHT22;5931;48.832;9.072;2023-11-21T03:34:56;7.60;99.90
11748;DHT22;5931;48.832;9.072;2023-11-21T03:37:23;7.60;99.90
11748;DHT22;5931;48.832;9.072;2023-11-21T03:39:49;7.60;99.90
11748;DHT22;5931;48.832;9.072;2023-11-21T03:42:15;7.60;99.90
11748;DHT22;5931;48.832;9.072;2023-11-21T03:44:41;7.50;99.90
11748;DHT22;5931;48.832;9.072;2023-11-21T03:47:06;7.50;99.90
11748;DHT22;5931;48.832;9.072;2023-11-21T03:49:33;7.50;99.90
11748;DHT22;5931;48.832;9.072;2023-11-21T03:51:59;7.40;99.90
11748;DHT22;5931;48.832;9.072;2023-11-21T03:54:24;7.50;99.90
11748;DHT22;5931;48.832;9.072;2023-11-21T03:56:50;7.50;99.90
11748;DHT22;5931;48.832;9.072;2023-11-21T03:59:17;7.60;99.90
11748;DHT22;5931;48.832;9.072;2023-11-21T04:01:43;7.60;99.90
11748;DHT22;5931;48.832;9.072;2023-11-21T04:04:09;7.60;99.90
11748;DHT22;5931;48.832;9.072;2023-11-21T04:06:34;7.60;99.90
11748;DHT22;5931;48.832;9.072;2023-11-21T04:09:01;7.60;99.90
11748;DHT22;5931;48.832;9.072;2023-11-21T04:11:27;7.60;99.90
11748;DHT22;5931;48.832;9.072;2023-11-21T04:13:55;7.60;99.90
11748;DHT22;5931;48.832;9.072;2023-11-21T04:16:21;7.60;99.90
11748;DHT22;5931;48.832;9.072;2023-11-21T04:18:47;7.60;99.90
11748;DHT22;5931;48.832;9.072;2023-11-21T04:21:12;7.60;99.90
11748;DHT22;5931;48.832;9.072;2023-11-21T04:23:38;7.50;99.90
11748;DHT22;5931;48.832;9.072;2023-11-21T04:26:05;7.30;99.90
11748;DHT22;5931;48.832;9.072;2023-11-21T04:28:31;7.30;99.90
11748;DHT22;5931;48.832;9.072;2023-11-21T04:30:57;7.20;99.90
11748;DHT22;5931;48.832;9.072;2023-11-21T04:33:22;7.20;99.90
11748;DHT22;5931;48.832;9.072;2023-11-21T04:35:48;7.20;99.90
11748;DHT22;5931;48.832;9.072;2023-11-21T04:38:14;7.10;99.90
11748;DHT22;5931;48.832;9.072;2023-11-21T04:40:40;7.10;99.90
11748;DHT22;5931;48.832;9.072;2023-11-21T04:43:06;7.00;99.90
11748;DHT22;5931;48.832;9.072;2023-11-21T04:45:31;6.90;99.90
11748;DHT22;5931;48.832;9.072;2023-11-21T04:47:57;6.90;99.90
11748;DHT22;5931;48.832;9.072;2023-11-21T04:50:23;6.90;99.90
11748;DHT22;5931;48.832;9.072;2023-11-21T04:52:51;6.80;99.90
11748;DHT22;5931;48.832;9.072;2023-11-21T04:55:17;6.70;99.90
11748;DHT22;5931;48.832;9.072;2023-11-21T04:57:43;6.60;99.90
11748;DHT22;5931;48.832;9.072;2023-11-21T05:00:09;6.50;99.90
11748;DHT22;5931;48.832;9.072;2023-11-21T05:02:36;6.50;99.90
11748;DHT22;5931;48.832;9.072;2023-11-21T05:05:02;6.40;99.90
11748;DHT22;5931;48.832;9.072;2023-11-21T05:07:28;6.40;99.90
11748;DHT22;5931;48.832;9.072;2023-11-21T05:09:55;6.30;99.90
11748;DHT22;5931;48.832;9.072;2023-11-21T05:12:24;6.30;99.90
11748;DHT22;5931;48.832;9.072;2023-11-21T05:14:50;6.20;99.90
11748;DHT22;5931;48.832;9.072;2023-11-21T05:17:16;6.20;99.90
11748;DHT22;5931;48.832;9.072;2023-11-21T05:19:42;6.20;99.90
11748;DHT22;5931;48.832;9.072;2023-11-21T05:22:11;6.10;99.90
11748;DHT22;5931;48.832;9.072;2023-11-21T05:24:37;6.10;99.90
11748;DHT22;5931;48.832;9.072;2023-11-21T05:27:05;6.20;99.90
11748;DHT22;5931;48.832;9.072;2023-11-21T05:29:30;6.30;99.90
11748;DHT22;5931;48.832;9.072;2023-11-21T05:31:56;6.40;99.90
11748;DHT22;5931;48.832;9.072;2023-11-21T05:34:22;6.40;99.90
11748;DHT22;5931;48.832;9.072;2023-11-21T05:36:50;6.40;99.90
11748;DHT22;5931;48.832;9.072;2023-11-21T05:39:16;6.40;99.90
11748;DHT22;5931;48.832;9.072;2023-11-21T05:41:43;6.40;99.90
11748;DHT22;5931;48.832;9.072;2023-11-21T05:44:09;6.40;99.90
11748;DHT22;5931;48.832;9.072;2023-11-21T05:46:35;6.40;99.90
11748;DHT22;5931;48.832;9.072;2023-11-21T05:49:00;6.50;99.90
11748;DHT22;5931;48.832;9.072;2023-11-21T05:51:26;6.50;99.90
11748;DHT22;5931;48.832;9.072;2023-11-21T05:53:52;6.50;99.90
11748;DHT22;5931;48.832;9.072;2023-11-21T05:56:18;6.50;99.90
11748;DHT22;5931;48.832;9.072;2023-11-21T05:58:43;6.40;99.90
11748;DHT22;5931;48.832;9.072;2023-11-21T06:01:09;6.40;99.90
11748;DHT22;5931;48.832;9.072;2023-11-21T06:03:38;6.40;99.90
11748;DHT22;5931;48.832;9.072;2023-11-21T06:06:04;6.50;99.90
11748;DHT22;5931;48.832;9.072;2023-11-21T06:08:30;6.50;99.90
11748;DHT22;5931;48.832;9.072;2023-11-21T06:10:56;6.50;99.90
11748;DHT22;5931;48.832;9.072;2023-11-21T06:13:22;6.50;99.90
11748;DHT22;5931;48.832;9.072;2023-11-21T06:15:50;6.50;99.90
11748;DHT22;5931;48.832;9.072;2023-11-21T06:18:17;6.50;99.90
11748;DHT22;5931;48.832;9.072;2023-11-21T06:20:46;6.50;99.90
11748;DHT22;5931;48.832;9.072;2023-11-21T06:23:11;6.50;99.90
11748;DHT22;5931;48.832;9.072;2023-11-21T06:25:37;6.50;99.90
11748;DHT22;5931;48.832;9.072;2023-11-21T06:28:03;6.60;99.90
11748;DHT22;5931;48.832;9.072;2023-11-21T06:30:29;6.50;99.90
11748;DHT22;5931;48.832;9.072;2023-11-21T06:32:55;6.50;99.90
11748;DHT22;5931;48.832;9.072;2023-11-21T06:35:21;6.40;99.90
11748;DHT22;5931;48.832;9.072;2023-11-21T06:37:47;6.30;99.90
11748;DHT22;5931;48.832;9.072;2023-11-21T06:40:14;6.30;99.90
11748;DHT22;5931;48.832;9.072;2023-11-21T06:42:41;6.20;99.90
11748;DHT22;5931;48.832;9.072;2023-11-21T06:45:07;6.20;99.90
11748;DHT22;5931;48.832;9.072;2023-11-21T06:47:36;6.20;99.90
11748;DHT22;5931;48.832;9.072;2023-11-21T06:50:03;6.10;99.90
11748;DHT22;5931;48.832;9.072;2023-11-21T06:52:29;6.20;99.90
11748;DHT22;5931;48.832;9.072;2023-11-21T06:54:55;6.30;99.90
11748;DHT22;5931;48.832;9.072;2023-11-21T06:57:23;6.30;99.90
11748;DHT22;5931;48.832;9.072;2023-11-21T06:59:49;6.30;99.90
11748;DHT22;5931;48.832;9.072;2023-11-21T07:02:16;6.40;99.90
11748;DHT22;5931;48.832;9.072;2023-11-21T07:04:46;6.40;99.90
11748;DHT22;5931;48.832;9.072;2023-11-21T07:07:12;6.50;99.90
11748;DHT22;5931;48.832;9.072;2023-11-21T07:09:38;6.50;99.90
11748;DHT22;5931;48.832;9.072;2023-11-21T07:12:04;6.60;99.90
11748;DHT22;5931;48.832;9.072;2023-11-21T07:14:36;6.60;99.90
11748;DHT22;5931;48.832;9.072;2023-11-21T07:17:02;6.60;99.90
11748;DHT22;5931;48.832;9.072;2023-11-21T07:19:28;6.70;99.90
11748;DHT22;5931;48.832;9.072;2023-11-21T07:21:55;6.70;99.90
11748;DHT22;5931;48.832;9.072;2023-11-21T07:24:21;6.80;99.90
11748;DHT22;5931;48.832;9.072;2023-11-21T07:26:48;6.90;99.90
11748;DHT22;5931;48.832;9.072;2023-11-21T07:29:14;6.90;99.90
11748;DHT22;5931;48.832;9.072;2023-11-21T07:31:40;7.00;99.90
11748;DHT22;5931;48.832;9.072;2023-11-21T07:34:07;7.10;99.90
11748;DHT22;5931;48.832;9.072;2023-11-21T07:36:34;7.20;99.90
11748;DHT22;5931;48.832;9.072;2023-11-21T07:38:59;7.20;99.90
11748;DHT22;5931;48.832;9.072;2023-11-21T07:41:25;7.30;99.90
11748;DHT22;5931;48.832;9.072;2023-11-21T07:43:52;7.40;99.90
11748;DHT22;5931;48.832;9.072;2023-11-21T07:46:17;7.50;99.90
11748;DHT22;5931;48.832;9.072;2023-11-21T07:48:43;7.60;99.90
11748;DHT22;5931;48.832;9.072;2023-11-21T07:51:10;7.80;99.90
11748;DHT22;5931;48.832;9.072;2023-11-21T07:53:36;7.90;99.90
11748;DHT22;5931;48.832;9.072;2023-11-21T07:56:09;8.00;99.90
11748;DHT22;5931;48.832;9.072;2023-11-21T07:58:37;8.10;99.90
11748;DHT22;5931;48.832;9.072;2023-11-21T08:01:03;8.30;99.90
11748;DHT22;5931;48.832;9.072;2023-11-21T08:03:30;8.30;99.90
11748;DHT22;5931;48.832;9.072;2023-11-21T08:05:57;8.30;99.90
11748;DHT22;5931;48.832;9.072;2023-11-21T08:08:23;8.50;99.90
11748;DHT22;5931;48.832;9.072;2023-11-21T08:10:49;8.60;99.90
11748;DHT22;5931;48.832;9.072;2023-11-21T08:13:26;8.60;99.90
11748;DHT22;5931;48.832;9.072;2023-11-21T08:15:56;8.70;99.90
11748;DHT22;5931;48.832;9.072;2023-11-21T08:18:22;8.70;99.90
11748;DHT22;5931;48.832;9.072;2023-11-21T08:20:48;8.70;99.90
11748;DHT22;5931;48.832;9.072;2023-11-21T08:23:15;8.70;99.90
11748;DHT22;5931;48.832;9.072;2023-11-21T08:25:45;8.70;99.90
11748;DHT22;5931;48.832;9.072;2023-11-21T08:28:12;8.70;99.90
11748;DHT22;5931;48.832;9.072;2023-11-21T08:30:37;8.80;99.90
11748;DHT22;5931;48.832;9.072;2023-11-21T08:33:04;8.80;99.90
11748;DHT22;5931;48.832;9.072;2023-11-21T08:35:31;8.70;99.90
11748;DHT22;5931;48.832;9.072;2023-11-21T08:37:56;8.80;99.90
11748;DHT22;5931;48.832;9.072;2023-11-21T08:40:22;8.80;99.90
11748;DHT22;5931;48.832;9.072;2023-11-21T08:42:49;8.80;99.90
11748;DHT22;5931;48.832;9.072;2023-11-21T08:45:17;8.80;99.90
11748;DHT22;5931;48.832;9.072;2023-11-21T08:47:43;8.80;99.90
11748;DHT22;5931;48.832;9.072;2023-11-21T08:50:12;8.80;99.90
11748;DHT22;5931;48.832;9.072;2023-11-21T08:52:39;8.70;99.90
11748;DHT22;5931;48.832;9.072;2023-11-21T08:55:06;8.70;99.90
11748;DHT22;5931;48.832;9.072;2023-11-21T08:57:41;8.60;99.90
11748;DHT22;5931;48.832;9.072;2023-11-21T09:00:09;8.50;99.90
11748;DHT22;5931;48.832;9.072;2023-11-21T09:02:40;8.60;99.90
11748;DHT22;5931;48.832;9.072;2023-11-21T09:05:13;8.50;99.90
11748;DHT22;5931;48.832;9.072;2023-11-21T09:07:40;8.50;99.90
11748;DHT22;5931;48.832;9.072;2023-11-21T09:10:07;8.50;99.90
11748;DHT22;5931;48.832;9.072;2023-11-21T09:12:35;8.50;99.90
11748;DHT22;5931;48.832;9.072;2023-11-21T09:15:03;8.50;99.90
11748;DHT22;5931;48.832;9.072;2023-11-21T09:17:31;8.50;99.90
11748;DHT22;5931;48.832;9.072;2023-11-21T09:19:57;8.50;99.90
11748;DHT22;5931;48.832;9.072;2023-11-21T09:22:23;8.40;99.90
11748;DHT22;5931;48.832;9.072;2023-11-21T09:24:51;8.40;99.90
11748;DHT22;5931;48.832;9.072;2023-11-21T09:27:17;8.30;99.90
11748;DHT22;5931;48.832;9.072;2023-11-21T09:29:43;8.30;99.90
11748;DHT22;5931;48.832;9.072;2023-11-21T09:32:09;8.30;99.90
11748;DHT22;5931;48.832;9.072;2023-11-21T09:34:39;8.30;99.90
11748;DHT22;5931;48.832;9.072;2023-11-21T09:37:05;8.30;99.90
11748;DHT22;5931;48.832;9.072;2023-11-21T09:39:32;8.30;99.90
11748;DHT22;5931;48.832;9.072;2023-11-21T09:42:23;8.30;99.90
11748;DHT22;5931;48.832;9.072;2023-11-21T09:47:25;8.40;99.90
11748;DHT22;5931;48.832;9.072;2023-11-21T09:49:52;8.40;99.90
11748;DHT22;5931;48.832;9.072;2023-11-21T09:52:25;8.50;99.90
11748;DHT22;5931;48.832;9.072;2023-11-21T09:54:55;8.40;99.90
11748;DHT22;5931;48.832;9.072;2023-11-21T09:57:27;8.40;99.90
11748;DHT22;5931;48.832;9.072;2023-11-21T09:59:54;8.40;99.90
11748;DHT22;5931;48.832;9.072;2023-11-21T10:02:25;8.40;99.90
11748;DHT22;5931;48.832;9.072;2023-11-21T10:04:52;8.40;99.90
11748;DHT22;5931;48.832;9.072;2023-11-21T10:07:20;8.40;99.90
11748;DHT22;5931;48.832;9.072;2023-11-21T10:09:46;8.40;99.90
11748;DHT22;5931;48.832;9.072;2023-11-21T10:12:15;8.40;99.90
11748;DHT22;5931;48.832;9.072;2023-11-21T10:14:41;8.50;99.90
11748;DHT22;5931;48.832;9.072;2023-11-21T10:17:10;8.50;99.90
11748;DHT22;5931;48.832;9.072;2023-11-21T10:19:39;8.60;99.90
11748;DHT22;5931;48.832;9.072;2023-11-21T10:22:05;8.60;99.90
11748;DHT22;5931;48.832;9.072;2023-11-21T10:24:33;8.70;99.90
11748;DHT22;5931;48.832;9.072;2023-11-21T10:26:59;8.70;99.90
11748;DHT22;5931;48.832;9.072;2023-11-21T10:29:30;8.90;99.90
11748;DHT22;5931;48.832;9.072;2023-11-21T10:31:56;8.90;99.90
11748;DHT22;5931;48.832;9.072;2023-11-21T10:34:24;9.00;99.90
11748;DHT22;5931;48.832;9.072;2023-11-21T10:36:50;9.00;99.90
11748;DHT22;5931;48.832;9.072;2023-11-21T10:39:20;9.00;99.90
11748;DHT22;5931;48.832;9.072;2023-11-21T10:41:49;9.10;99.90
11748;DHT22;5931;48.832;9.072;2023-11-21T10:44:17;9.10;99.90
11748;DHT22;5931;48.832;9.072;2023-11-21T10:46:54;9.20;99.90
11748;DHT22;5931;48.832;9.072;2023-11-21T10:49:25;9.10;99.90
11748;DHT22;5931;48.832;9.072;2023-11-21T10:51:53;9.10;99.90
11748;DHT22;5931;48.832;9.072;2023-11-21T10:54:20;9.20;99.90
11748;DHT22;5931;48.832;9.072;2023-11-21T10:56:50;9.40;99.90
11748;DHT22;5931;48.832;9.072;2023-11-21T10:59:19;9.50;99.90
11748;DHT22;5931;48.832;9.072;2023-11-21T11:01:46;9.50;99.90
11748;DHT22;5931;48.832;9.072;2023-11-21T11:04:15;9.60;99.90
11748;DHT22;5931;48.832;9.072;2023-11-21T11:06:55;9.80;99.90
11748;DHT22;5931;48.832;9.072;2023-11-21T11:09:22;9.80;99.90
11748;DHT22;5931;48.832;9.072;2023-11-21T11:11:48;9.90;99.90
11748;DHT22;5931;48.832;9.072;2023-11-21T11:14:14;10.00;99.90
11748;DHT22;5931;48.832;9.072;2023-11-21T11:16:41;10.10;99.90
11748;DHT22;5931;48.832;9.072;2023-11-21T11:19:09;10.20;99.90
11748;DHT22;5931;48.832;9.072;2023-11-21T11:24:49;10.40;99.90
11748;DHT22;5931;48.832;9.072;2023-11-21T11:27:36;10.30;99.90
11748;DHT22;5931;48.832;9.072;2023-11-21T11:30:10;10.10;99.90
11748;DHT22;5931;48.832;9.072;2023-11-21T11:32:49;10.00;99.90
11748;DHT22;5931;48.832;9.072;2023-11-21T11:38:34;10.10;99.90
11748;DHT22;5931;48.832;9.072;2023-11-21T11:41:03;10.10;99.90
11748;DHT22;5931;48.832;9.072;2023-11-21T11:43:30;10.10;99.90
11748;DHT22;5931;48.832;9.072;2023-11-21T11:45:59;10.10;99.90
11748;DHT22;5931;48.832;9.072;2023-11-21T11:48:25;10.20;99.90
11748;DHT22;5931;48.832;9.072;2023-11-21T11:51:12;10.30;99.90
11748;DHT22;5931;48.832;9.072;2023-11-21T11:53:41;10.30;99.90
11748;DHT22;5931;48.832;9.072;2023-11-21T11:56:32;10.10;99.90
11748;DHT22;5931;48.832;9.072;2023-11-21T11:59:02;9.80;99.90
11748;DHT22;5931;48.832;9.072;2023-11-21T12:01:29;9.60;99.90
11748;DHT22;5931;48.832;9.072;2023-11-21T12:06:51;9.30;99.90
11748;DHT22;5931;48.832;9.072;2023-11-21T12:09:19;9.30;99.90
11748;DHT22;5931;48.832;9.072;2023-11-21T12:11:47;9.40;99.90
11748;DHT22;5931;48.832;9.072;2023-11-21T12:14:14;9.40;99.90
11748;DHT22;5931;48.832;9.072;2023-11-21T12:16:40;9.40;99.90
11748;DHT22;5931;48.832;9.072;2023-11-21T12:19:06;9.50;99.90
11748;DHT22;5931;48.832;9.072;2023-11-21T12:21:32;9.60;99.90
11748;DHT22;5931;48.832;9.072;2023-11-21T12:23:58;9.80;99.90
11748;DHT22;5931;48.832;9.072;2023-11-21T12:26:24;9.80;99.90
11748;DHT22;5931;48.832;9.072;2023-11-21T12:28:53;9.80;99.90
11748;DHT22;5931;48.832;9.072;2023-11-21T12:31:22;9.70;99.90
11748;DHT22;5931;48.832;9.072;2023-11-21T12:33:49;9.70;99.90
11748;DHT22;5931;48.832;9.072;2023-11-21T12:36:15;9.60;99.90
11748;DHT22;5931;48.832;9.072;2023-11-21T12:38:42;9.70;99.90
11748;DHT22;5931;48.832;9.072;2023-11-21T12:41:09;9.70;99.90
11748;DHT22;5931;48.832;9.072;2023-11-21T12:43:35;9.80;99.90
11748;DHT22;5931;48.832;9.072;2023-11-21T12:46:08;9.80;99.90
11748;DHT22;5931;48.832;9.072;2023-11-21T12:48:38;9.90;99.90
11748;DHT22;5931;48.832;9.072;2023-11-21T12:51:06;9.70;99.90
11748;DHT22;5931;48.832;9.072;2023-11-21T12:53:32;9.60;99.90
11748;DHT22;5931;48.832;9.072;2023-11-21T12:56:22;9.50;99.90
11748;DHT22;5931;48.832;9.072;2023-11-21T12:58:54;9.30;99.90
11748;DHT22;5931;48.832;9.072;2023-11-21T13:01:25;9.20;99.90
11748;DHT22;5931;48.832;9.072;2023-11-21T13:03:53;9.10;99.90
11748;DHT22;5931;48.832;9.072;2023-11-21T13:06:19;9.00;99.90
11748;DHT22;5931;48.832;9.072;2023-11-21T13:08:47;8.90;99.90
11748;DHT22;5931;48.832;9.072;2023-11-21T13:11:14;8.90;99.90
11748;DHT22;5931;48.832;9.072;2023-11-21T13:13:41;8.90;99.90
11748;DHT22;5931;48.832;9.072;2023-11-21T13:16:08;8.90;99.90
11748;DHT22;5931;48.832;9.072;2023-11-21T13:18:35;9.00;99.90
11748;DHT22;5931;48.832;9.072;2023-11-21T13:21:04;8.90;99.90
11748;DHT22;5931;48.832;9.072;2023-11-21T13:23:38;8.90;99.90
11748;DHT22;5931;48.832;9.072;2023-11-21T13:26:04;8.80;99.90
11748;DHT22;5931;48.832;9.072;2023-11-21T13:28:33;8.80;99.90
11748;DHT22;5931;48.832;9.072;2023-11-21T13:31:00;8.80;99.90
11748;DHT22;5931;48.832;9.072;2023-11-21T13:33:35;8.80;99.90
11748;DHT22;5931;48.832;9.072;2023-11-21T13:36:05;8.80;99.90
11748;DHT22;5931;48.832;9.072;2023-11-21T13:38:33;8.90;99.90
11748;DHT22;5931;48.832;9.072;2023-11-21T13:41:01;8.90;99.90
11748;DHT22;5931;48.832;9.072;2023-11-21T13:43:27;9.00;99.90
11748;DHT22;5931;48.832;9.072;2023-11-21T13:45:54;9.10;99.90
11748;DHT22;5931;48.832;9.072;2023-11-21T13:48:38;9.00;99.90
11748;DHT22;5931;48.832;9.072;2023-11-21T13:51:11;9.00;99.90
11748;DHT22;5931;48.832;9.072;2023-11-21T13:53:47;8.90;99.90
11748;DHT22;5931;48.832;9.072;2023-11-21T13:56:15;8.90;99.90
11748;DHT22;5931;48.832;9.072;2023-11-21T13:58:45;9.00;99.90
11748;DHT22;5931;48.832;9.072;2023-11-21T14:01:18;9.10;99.90
11748;DHT22;5931;48.832;9.072;2023-11-21T14:04:07;9.10;99.90
11748;DHT22;5931;48.832;9.072;2023-11-21T14:06:43;9.10;99.90
11748;DHT22;5931;48.832;9.072;2023-11-21T14:09:20;9.10;99.90
11748;DHT22;5931;48.832;9.072;2023-11-21T14:11:58;9.00;99.90
11748;DHT22;5931;48.832;9.072;2023-11-21T14:14:27;8.90;99.90
11748;DHT22;5931;48.832;9.072;2023-11-21T14:16:56;8.90;99.90
11748;DHT22;5931;48.832;9.072;2023-11-21T14:19:22;8.80;99.90
11748;DHT22;5931;48.832;9.072;2023-11-21T14:21:52;8.80;99.90
11748;DHT22;5931;48.832;9.072;2023-11-21T14:24:18;8.80;99.90
11748;DHT22;5931;48.832;9.072;2023-11-21T14:26:47;8.70;99.90
11748;DHT22;5931;48.832;9.072;2023-11-21T14:29:18;8.70;99.90
11748;DHT22;5931;48.832;9.072;2023-11-21T14:31:47;8.70;99.90
11748;DHT22;5931;48.832;9.072;2023-11-21T14:34:14;8.70;99.90
11748;DHT22;5931;48.832;9.072;2023-11-21T14:36:40;8.70;99.90
11748;DHT22;5931;48.832;9.072;2023-11-21T14:39:06;8.70;99.90
11748;DHT22;5931;48.832;9.072;2023-11-21T14:41:46;8.70;99.90
11748;DHT22;5931;48.832;9.072;2023-11-21T14:44:11;8.70;99.90
11748;DHT22;5931;48.832;9.072;2023-11-21T14:46:39;8.70;99.90
11748;DHT22;5931;48.832;9.072;2023-11-21T14:49:08;8.70;99.90
11748;DHT22;5931;48.832;9.072;2023-11-21T14:51:50;8.70;99.90
11748;DHT22;5931;48.832;9.072;2023-11-21T14:54:32;8.70;99.90
11748;DHT22;5931;48.832;9.072;2023-11-21T14:57:09;8.70;99.90
11748;DHT22;5931;48.832;9.072;2023-11-21T14:59:47;8.70;99.90
11748;DHT22;5931;48.832;9.072;2023-11-21T15:02:19;8.60;99.90
11748;DHT22;5931;48.832;9.072;2023-11-21T15:05:08;8.60;99.90
11748;DHT22;5931;48.832;9.072;2023-11-21T15:07:40;8.50;99.90
11748;DHT22;5931;48.832;9.072;2023-11-21T15:10:07;8.50;99.90
11748;DHT22;5931;48.832;9.072;2023-11-21T15:12:38;8.40;99.90
11748;DHT22;5931;48.832;9.072;2023-11-21T15:15:05;8.40;99.90
11748;DHT22;5931;48.832;9.072;2023-11-21T15:17:36;8.30;99.90
11748;DHT22;5931;48.832;9.072;2023-11-21T15:20:03;8.30;99.90
11748;DHT22;5931;48.832;9.072;2023-11-21T15:22:32;8.30;99.90
11748;DHT22;5931;48.832;9.072;2023-11-21T15:24:58;8.30;99.90
11748;DHT22;5931;48.832;9.072;2023-11-21T15:27:24;8.30;99.90
11748;DHT22;5931;48.832;9.072;2023-11-21T15:29:50;8.20;99.90
11748;DHT22;5931;48.832;9.072;2023-11-21T15:32:16;8.20;99.90
11748;DHT22;5931;48.832;9.072;2023-11-21T15:34:42;8.20;99.90
11748;DHT22;5931;48.832;9.072;2023-11-21T15:37:08;8.20;99.90
11748;DHT22;5931;48.832;9.072;2023-11-21T15:39:37;8.20;99.90
11748;DHT22;5931;48.832;9.072;2023-11-21T15:42:04;8.20;99.90
11748;DHT22;5931;48.832;9.072;2023-11-21T15:44:32;8.10;99.90
11748;DHT22;5931;48.832;9.072;2023-11-21T15:46:59;8.20;99.90
11748;DHT22;5931;48.832;9.072;2023-11-21T15:49:25;8.20;99.90
11748;DHT22;5931;48.832;9.072;2023-11-21T15:51:53;8.10;99.90
11748;DHT22;5931;48.832;9.072;2023-11-21T15:54:22;8.10;99.90
11748;DHT22;5931;48.832;9.072;2023-11-21T15:56:51;8.10;99.90
11748;DHT22;5931;48.832;9.072;2023-11-21T15:59:23;8.10;99.90
11748;DHT22;5931;48.832;9.072;2023-11-21T16:01:50;8.10;99.90
11748;DHT22;5931;48.832;9.072;2023-11-21T16:04:15;8.00;99.90
11748;DHT22;5931;48.832;9.072;2023-11-21T16:06:43;8.00;99.90
11748;DHT22;5931;48.832;9.072;2023-11-21T16:09:10;8.00;99.90
11748;DHT22;5931;48.832;9.072;2023-11-21T16:11:48;8.00;99.90
11748;DHT22;5931;48.832;9.072;2023-11-21T16:14:14;8.00;99.90
11748;DHT22;5931;48.832;9.072;2023-11-21T16:16:42;7.90;99.90
11748;DHT22;5931;48.832;9.072;2023-11-21T16:19:08;7.90;99.90
11748;DHT22;5931;48.832;9.072;2023-11-21T16:21:34;7.90;99.90